Matsudo, Japan
Current Conditions -  °F | °C
As of 9:00 PM on Sunday 25 Jan 2015 (Local Time) from RJTT Reporting Station
Broken Clouds Broken Clouds  
Wind Chill: 44°   Ceiling: 5000
Heat Index: 48°   Visibility: 6mi
Dew Point: 41°   Wind: 10mph
Humidity: 76%   Direction: 70°ENE
Pressure: 30.36"   Gusts: NA
Location:  35.78°N, 139.9°E
Report Text: RJTT 251200Z 07009KT 9999 BKN050 09/05 Q1028 NOSIG
Loading
Personal Weather Stations






























Interactive Weather Map New forecast layout! Learn more

10-Day Weather Forecast

Advertisements
Track Severe Weather on mobile